Login to view Products
 
Saturday, August 08, 2020 (08:10 UTC)
Ras Al Khaimah International Airport
ICAO: OMRK
IATA: RKT
  • METAR OMRK 080800Z 25008KT CAVOK 41/23 Q0994 A2937=
  • TAF OMRK 080450Z 0806/0912 22007KT 8000 NSC BECMG 0807/0809 31012KT BECMG 0815/0817 VRB02KT PROB30 0900/0904 4000 HZ BKN012 BECMG 0908/0910 33012KT=
D:\Input Parser\Destinations\Final\04\OMRKL06120450296115394.txt
1